Las Cruces, NM

2:40 AM MDT on August 17, 2017 (GMT -0600)
Las Cruces International

Weather History for KLRU - May, 2014

Change the Weather History Date:

Friday, May 9, 2014

  Actual Average Record
Temperature  
Mean Temperature 62 °F -  
Max Temperature 81 °F 82 °F 91 °F (2004)
Min Temperature 43 °F 53 °F 42 °F (2003)
Degree Days  
Heating Degree Days 3    
Growing Degree Days 12 (Base 50)    
Moisture  
Dew Point 15 °F    
Average Humidity 16    
Maximum Humidity 30    
Minimum Humidity 7    
Precipitation  
Precipitation 0.00 in - - ()
Sea Level Pressure  
Sea Level Pressure 30.04 in    
Wind  
Wind Speed 8 mph (West)    
Max Wind Speed 21 mph    
Max Gust Speed 29 mph    
Visibility 10 miles    
Events      
Averages and records for this station are not official NWS values.
T = Trace of Precipitation, MM = Missing Value Source: NWS Daily Summary

Daily Weather History Graph

Daily Weather History Graph

Search for Another Location

Airport or City:

Trip Planner

Search our weather history database for the weather conditions in past years. The results will help you decide how hot, cold, wet, or windy it might be!

Date:

Astronomy

May. 09, 2014 Rise Set
Actual Time 6:14 AM MDT 7:54 PM MDT
Civil Twilight 5:47 AM MDT 8:21 PM MDT
Nautical Twilight 5:15 AM MDT 8:53 PM MDT
Astronomical Twilight 4:42 AM MDT 9:26 PM MDT
Moon 3:11 PM MDT (5/9) 2:59 AM MDT (5/9)
Length of Visible Light 14h 33m
Length of Day
13h 40m
Waxing Gibbous, 74% of the Moon is Illuminated
May 9
Waxing Gibbous
May 14
Full
May 21
Last Quarter
May 28
New
Jun 5
First Quarter

Hourly Weather History & Observations

Time (MDT) Temp. Windchill Dew Point Humidity Pressure Visibility Wind Dir Wind Speed Gust Speed Precip Events Conditions
12:15 AM 56.5 °F - 15.6 °F 20% 30.06 in 10.0 mi NW 8.1 mph - N/A   Clear
12:35 AM 56.3 °F - 15.8 °F 20% 30.06 in 10.0 mi NW 8.1 mph - N/A   Clear
12:55 AM 55.4 °F - 15.8 °F 21% 30.06 in 10.0 mi NNW 9.2 mph - N/A   Clear
1:15 AM 55.9 °F - 16.5 °F 21% 30.06 in 10.0 mi NNW 8.1 mph - N/A   Clear
1:35 AM 53.6 °F - 16.0 °F 23% 30.07 in 10.0 mi NNW 6.9 mph - N/A   Clear
1:55 AM 52.0 °F - 16.2 °F 24% 30.06 in 10.0 mi North 6.9 mph - N/A   Clear
2:15 AM 50.0 °F - 15.6 °F 25% 30.06 in 10.0 mi North 6.9 mph - N/A   Clear
2:35 AM 48.9 °F - 15.4 °F 26% 30.05 in 10.0 mi North 6.9 mph - N/A   Clear
2:55 AM 47.7 °F - 14.9 °F 27% 30.05 in 10.0 mi NNW 5.8 mph - N/A   Clear
3:15 AM 46.2 °F 43.3 °F 14.7 °F 28% 30.05 in 10.0 mi North 5.8 mph - N/A   Clear
3:35 AM 45.7 °F 43.4 °F 14.4 °F 28% 30.05 in 10.0 mi North 4.6 mph - N/A   Clear
3:55 AM 46.2 °F 43.3 °F 14.9 °F 28% 30.06 in 10.0 mi North 5.8 mph - N/A   Clear
4:15 AM 45.3 °F 41.6 °F 14.0 °F 28% 30.07 in 10.0 mi NNW 6.9 mph - N/A   Clear
4:35 AM 44.8 °F 42.4 °F 14.0 °F 29% 30.06 in 10.0 mi NNW 4.6 mph - N/A   Clear
4:55 AM 43.9 °F 41.3 °F 13.8 °F 30% 30.07 in 10.0 mi NNW 4.6 mph - N/A   Clear
5:15 AM 43.7 °F 41.1 °F 14.0 °F 30% 30.07 in 10.0 mi NNW 4.6 mph - N/A   Clear
5:35 AM 47.1 °F - 15.6 °F 28% 30.08 in 10.0 mi South 3.5 mph - N/A   Clear
5:55 AM 45.9 °F 42.9 °F 14.9 °F 29% 30.08 in 10.0 mi WSW 5.8 mph - N/A   Clear
6:15 AM 45.5 °F 43.2 °F 15.1 °F 29% 30.09 in 10.0 mi SW 4.6 mph - N/A   Clear
6:35 AM 45.0 °F 43.5 °F 14.9 °F 30% 30.09 in 10.0 mi WSW 3.5 mph - N/A   Clear
6:55 AM 45.9 °F 44.6 °F 14.9 °F 29% 30.10 in 10.0 mi West 3.5 mph - N/A   Clear
7:15 AM 48.7 °F - 15.1 °F 26% 30.11 in 10.0 mi Calm Calm - N/A   Clear
7:35 AM 53.2 °F - 16.7 °F 24% 30.12 in 10.0 mi Calm Calm - N/A   Clear
7:55 AM 57.0 °F - 17.6 °F 21% 30.12 in 10.0 mi Calm Calm - N/A   Clear
8:15 AM 60.1 °F - 18.0 °F 20% 30.12 in 10.0 mi SE 3.5 mph - N/A   Clear
8:35 AM 61.2 °F - 18.9 °F 20% 30.13 in 10.0 mi Calm Calm - N/A   Clear
8:55 AM 62.6 °F - 19.6 °F 19% 30.13 in 10.0 mi SSE 5.8 mph - N/A   Clear
9:15 AM 63.9 °F - 19.6 °F 18% 30.12 in 10.0 mi SSE 5.8 mph - N/A   Clear
9:35 AM 66.6 °F - 19.8 °F 17% 30.12 in 10.0 mi South 6.9 mph - N/A   Clear
9:55 AM 68.4 °F - 19.6 °F 16% 30.12 in 10.0 mi South 10.4 mph - N/A   Clear
10:15 AM 68.9 °F - 19.4 °F 15% 30.12 in 10.0 mi South 11.5 mph 16.1 mph N/A   Clear
10:35 AM 70.2 °F - 19.4 °F 15% 30.11 in 10.0 mi South 11.5 mph 16.1 mph N/A   Clear
10:55 AM 71.6 °F - 19.4 °F 14% 30.10 in 10.0 mi South 12.7 mph 18.4 mph N/A   Clear
11:15 AM 72.0 °F - 18.9 °F 13% 30.10 in 10.0 mi South 6.9 mph 17.3 mph N/A   Clear
11:35 AM 72.3 °F - 18.5 °F 13% 30.09 in 10.0 mi SW 3.5 mph - N/A   Clear
11:55 AM 73.9 °F - 18.3 °F 12% 30.09 in 10.0 mi SW 6.9 mph - N/A   Clear
12:15 PM 74.7 °F - 17.6 °F 12% 30.08 in 10.0 mi SW 5.8 mph 19.6 mph N/A   Clear
12:35 PM 77.2 °F - 17.1 °F 10% 30.07 in 10.0 mi SW 16.1 mph 20.7 mph N/A   Clear
12:55 PM 76.6 °F - 15.3 °F 10% 30.06 in 10.0 mi WSW 10.4 mph 20.7 mph N/A   Clear
1:15 PM 77.0 °F - 12.4 °F 9% 30.05 in 10.0 mi SW 15.0 mph 25.3 mph N/A   Clear
1:35 PM 77.4 °F - 12.7 °F 9% 30.04 in 10.0 mi SSW 16.1 mph 20.7 mph N/A   Clear
1:55 PM 77.0 °F - 12.9 °F 9% 30.03 in 10.0 mi WSW 15.0 mph 23.0 mph N/A   Clear
2:15 PM 77.4 °F - 13.1 °F 9% 30.03 in 10.0 mi WSW 18.4 mph 21.9 mph N/A   Clear
2:35 PM 77.5 °F - 14.7 °F 9% 30.02 in 10.0 mi SW 12.7 mph 19.6 mph N/A   Clear
2:55 PM 77.9 °F - 14.9 °F 9% 30.01 in 10.0 mi WSW 12.7 mph 27.6 mph N/A   Clear
3:15 PM 78.8 °F - 14.7 °F 9% 29.99 in 10.0 mi SSW 11.5 mph 19.6 mph N/A   Clear
3:35 PM 79.5 °F - 13.6 °F 8% 29.99 in 10.0 mi WSW 17.3 mph 28.8 mph N/A   Clear
3:55 PM 79.7 °F - 13.5 °F 8% 29.97 in 10.0 mi WSW 17.3 mph 23.0 mph N/A   Clear
4:15 PM 79.7 °F - 12.7 °F 8% 29.96 in 10.0 mi WSW 11.5 mph 24.2 mph N/A   Clear
4:35 PM 80.8 °F - 12.2 °F 8% 29.96 in 10.0 mi SW 16.1 mph 23.0 mph N/A   Clear
4:55 PM 81.0 °F - 13.1 °F 8% 29.96 in 10.0 mi WSW 17.3 mph - N/A   Clear
5:15 PM 80.1 °F - 14.0 °F 8% 29.95 in 10.0 mi SW 19.6 mph 24.2 mph N/A   Clear
5:35 PM 80.2 °F - 14.0 °F 8% 29.95 in 10.0 mi SW 9.2 mph 16.1 mph N/A   Clear
5:55 PM 80.8 °F - 14.4 °F 8% 29.95 in 10.0 mi SW 12.7 mph 19.6 mph N/A   Clear
6:15 PM 79.9 °F - 13.6 °F 8% 29.94 in 10.0 mi WSW 11.5 mph - N/A   Clear
6:35 PM 79.0 °F - 10.8 °F 7% 29.94 in 10.0 mi West 20.7 mph 24.2 mph N/A   Clear
6:55 PM 79.2 °F - 13.1 °F 8% 29.94 in 10.0 mi West 19.6 mph 28.8 mph N/A   Clear
7:15 PM 78.4 °F - 14.4 °F 9% 29.94 in 10.0 mi West 20.7 mph 26.5 mph N/A   Clear
7:35 PM 76.6 °F - 14.5 °F 10% 29.95 in 10.0 mi West 15.0 mph 23.0 mph N/A   Clear
7:55 PM 75.2 °F - 14.0 °F 10% 29.95 in 10.0 mi West 16.1 mph 24.2 mph N/A   Clear
8:15 PM 74.1 °F - 12.6 °F 10% 29.95 in 10.0 mi West 16.1 mph 23.0 mph N/A   Clear
8:35 PM 72.5 °F - 12.2 °F 10% 29.95 in 10.0 mi West 11.5 mph - N/A   Clear
8:55 PM 71.1 °F - 12.2 °F 10% 29.96 in 10.0 mi West 9.2 mph - N/A   Clear
9:15 PM 68.2 °F - 11.8 °F 11% 29.96 in 10.0 mi West 10.4 mph - N/A   Clear
9:35 PM 67.6 °F - 12.2 °F 12% 29.97 in 10.0 mi WNW 9.2 mph - N/A   Clear
9:55 PM 65.7 °F - 12.0 °F 12% 29.98 in 10.0 mi WNW 6.9 mph - N/A   Clear
10:15 PM 63.9 °F - 11.3 °F 13% 29.99 in 10.0 mi WNW 4.6 mph - N/A   Clear
10:35 PM 62.6 °F - 11.1 °F 13% 29.99 in 10.0 mi WNW 4.6 mph - N/A   Clear
10:55 PM 60.4 °F - 10.4 °F 14% 29.99 in 10.0 mi NW 4.6 mph - N/A   Clear
11:15 PM 61.2 °F - 10.8 °F 14% 29.99 in 10.0 mi Calm Calm - N/A   Clear
11:35 PM 61.5 °F - 11.1 °F 14% 29.99 in 10.0 mi Calm Calm - N/A   Clear
11:55 PM 55.8 °F - 8.6 °F 15% 29.99 in 10.0 mi Calm Calm - N/A   Clear